createdAt,value
2024-01-12T00:01:47.938Z,-2.71
2024-01-12T00:04:16.773Z,-2.70
2024-01-12T00:06:47.349Z,-2.73
2024-01-12T00:09:16.020Z,-2.77
2024-01-12T00:11:44.465Z,-2.77
2024-01-12T00:14:17.178Z,-2.77
2024-01-12T00:16:49.267Z,-2.75
2024-01-12T00:19:19.027Z,-2.74
2024-01-12T00:21:48.029Z,-2.73
2024-01-12T00:24:16.054Z,-2.74
2024-01-12T00:26:44.205Z,-2.77
2024-01-12T00:29:12.358Z,-2.77
2024-01-12T00:31:40.555Z,-2.77
2024-01-12T00:34:08.638Z,-2.79
2024-01-12T00:36:36.646Z,-2.79
2024-01-12T00:39:05.380Z,-2.76
2024-01-12T00:41:33.538Z,-2.71
2024-01-12T00:44:02.794Z,-2.69
2024-01-12T00:46:30.960Z,-2.69
2024-01-12T00:48:59.551Z,-2.70
2024-01-12T00:51:27.919Z,-2.67
2024-01-12T00:53:56.372Z,-2.69
2024-01-12T00:56:25.416Z,-2.71
2024-01-12T00:58:53.507Z,-2.72
2024-01-12T01:01:22.185Z,-2.73
2024-01-12T01:03:50.393Z,-2.73
2024-01-12T01:06:18.716Z,-2.76
2024-01-12T01:08:49.399Z,-2.78
2024-01-12T01:11:17.552Z,-2.82
2024-01-12T01:13:45.604Z,-2.83
2024-01-12T01:16:13.688Z,-2.86
2024-01-12T01:18:41.972Z,-2.84
2024-01-12T01:21:10.478Z,-2.84
2024-01-12T01:23:38.524Z,-2.86
2024-01-12T01:26:06.625Z,-2.86
2024-01-12T01:28:34.831Z,-2.87
2024-01-12T01:31:03.350Z,-2.86
2024-01-12T01:33:31.508Z,-2.85
2024-01-12T01:35:59.762Z,-2.88
2024-01-12T01:38:27.868Z,-2.89
2024-01-12T01:40:56.092Z,-2.93
2024-01-12T01:43:24.281Z,-2.96
2024-01-12T01:45:53.260Z,-2.97
2024-01-12T01:48:21.380Z,-2.96
2024-01-12T01:50:49.714Z,-2.96
2024-01-12T01:53:18.072Z,-2.96
2024-01-12T01:55:46.298Z,-3.01
2024-01-12T01:58:15.040Z,-3.02
2024-01-12T02:00:44.969Z,-3.05
2024-01-12T02:03:13.151Z,-3.07
2024-01-12T02:05:44.045Z,-3.10
2024-01-12T02:08:12.165Z,-3.08
2024-01-12T02:10:40.545Z,-3.07
2024-01-12T02:13:08.731Z,-3.06
2024-01-12T02:15:36.765Z,-3.09
2024-01-12T02:18:05.375Z,-3.13
2024-01-12T02:20:33.811Z,-3.15
2024-01-12T02:23:01.880Z,-3.17
2024-01-12T02:25:30.032Z,-3.16
2024-01-12T02:27:58.417Z,-3.13
2024-01-12T02:30:26.771Z,-3.10
2024-01-12T02:32:55.170Z,-3.08
2024-01-12T02:35:23.590Z,-3.08
2024-01-12T02:37:51.723Z,-3.09
2024-01-12T02:40:19.817Z,-3.10
2024-01-12T02:42:48.241Z,-3.11
2024-01-12T02:45:16.331Z,-3.08
2024-01-12T02:47:45.122Z,-3.06
2024-01-12T02:50:14.148Z,-3.08
2024-01-12T02:52:42.438Z,-3.09
2024-01-12T02:55:10.505Z,-3.11
2024-01-12T02:57:38.590Z,-3.11
2024-01-12T03:00:08.387Z,-3.11
2024-01-12T03:02:37.513Z,-3.11
2024-01-12T03:05:06.932Z,-3.15
2024-01-12T03:07:35.402Z,-3.16
2024-01-12T03:10:03.544Z,-3.15
2024-01-12T03:12:31.525Z,-3.15
2024-01-12T03:14:59.776Z,-3.14
2024-01-12T03:17:28.007Z,-3.15
2024-01-12T03:19:56.330Z,-3.17
2024-01-12T03:22:24.512Z,-3.19
2024-01-12T03:24:52.547Z,-3.19
2024-01-12T03:27:20.560Z,-3.22
2024-01-12T03:29:48.678Z,-3.25
2024-01-12T03:32:17.006Z,-3.27
2024-01-12T03:34:45.171Z,-3.27
2024-01-12T03:37:13.641Z,-3.29
2024-01-12T03:39:41.925Z,-3.29
2024-01-12T03:42:09.998Z,-3.31
2024-01-12T03:44:38.123Z,-3.33
2024-01-12T03:47:06.574Z,-3.33
2024-01-12T03:49:34.822Z,-3.34
2024-01-12T03:52:14.890Z,-3.33
2024-01-12T03:54:44.550Z,-3.29
2024-01-12T03:57:12.776Z,-3.25
2024-01-12T03:59:42.122Z,-3.22
2024-01-12T04:02:10.315Z,-3.18
2024-01-12T04:04:38.467Z,-3.18
2024-01-12T04:07:06.596Z,-3.17
2024-01-12T04:09:34.679Z,-3.16
2024-01-12T04:12:03.920Z,-3.14
2024-01-12T04:14:35.347Z,-3.18
2024-01-12T04:17:05.939Z,-3.19
2024-01-12T04:19:34.241Z,-3.20
2024-01-12T04:22:02.266Z,-3.23
2024-01-12T04:24:30.409Z,-3.25
2024-01-12T04:26:58.568Z,-3.28
2024-01-12T04:29:26.661Z,-3.26
2024-01-12T04:31:54.884Z,-3.26
2024-01-12T04:34:22.996Z,-3.30
2024-01-12T04:36:51.121Z,-3.31
2024-01-12T04:39:19.452Z,-3.30
2024-01-12T04:41:47.756Z,-3.28
2024-01-12T04:44:16.046Z,-3.28
2024-01-12T04:46:45.002Z,-3.28
2024-01-12T04:49:13.229Z,-3.27
2024-01-12T04:51:41.470Z,-3.28
2024-01-12T04:54:09.595Z,-3.28
2024-01-12T04:56:37.669Z,-3.27
2024-01-12T04:59:05.826Z,-3.28
2024-01-12T05:01:34.021Z,-3.28
2024-01-12T05:04:02.102Z,-3.26
2024-01-12T05:06:30.548Z,-3.22
2024-01-12T05:09:01.540Z,-3.19
2024-01-12T05:11:30.169Z,-3.16
2024-01-12T05:13:58.321Z,-3.12
2024-01-12T05:16:26.688Z,-3.13
2024-01-12T05:18:54.969Z,-3.13
2024-01-12T05:21:23.694Z,-3.11
2024-01-12T05:23:51.826Z,-3.08
2024-01-12T05:26:20.310Z,-3.08
2024-01-12T05:28:48.390Z,-3.07
2024-01-12T05:31:16.587Z,-3.07
2024-01-12T05:33:44.873Z,-3.12
2024-01-12T05:36:13.186Z,-3.16
2024-01-12T05:38:41.535Z,-3.19
2024-01-12T05:41:09.602Z,-3.20
2024-01-12T05:43:37.638Z,-3.20
2024-01-12T05:46:06.391Z,-3.17
2024-01-12T05:48:35.653Z,-3.16
2024-01-12T05:51:04.353Z,-3.15
2024-01-12T05:53:32.527Z,-3.15
2024-01-12T05:56:00.662Z,-3.14
2024-01-12T05:58:28.755Z,-3.16
2024-01-12T06:00:56.978Z,-3.17
2024-01-12T06:03:25.659Z,-3.18
2024-01-12T06:05:54.045Z,-3.17
2024-01-12T06:08:22.375Z,-3.18
2024-01-12T06:10:51.877Z,-3.17
2024-01-12T06:13:20.028Z,-3.17
2024-01-12T06:15:48.065Z,-3.15
2024-01-12T06:18:16.236Z,-3.16
2024-01-12T06:20:44.608Z,-3.17
2024-01-12T06:23:12.772Z,-3.20
2024-01-12T06:25:40.968Z,-3.21
2024-01-12T06:28:09.116Z,-3.20
2024-01-12T06:30:37.557Z,-3.20
2024-01-12T06:33:06.697Z,-3.16
2024-01-12T06:35:35.062Z,-3.11
2024-01-12T06:38:03.473Z,-3.12
2024-01-12T06:40:32.758Z,-3.12
2024-01-12T06:43:01.053Z,-3.10
2024-01-12T06:45:29.091Z,-3.08
2024-01-12T06:47:57.278Z,-3.08
2024-01-12T06:50:25.495Z,-3.06
2024-01-12T06:52:53.657Z,-3.01
2024-01-12T06:55:21.813Z,-3.04
2024-01-12T06:57:49.844Z,-3.04
2024-01-12T07:00:18.428Z,-3.04
2024-01-12T07:02:47.507Z,-3.08
2024-01-12T07:05:15.811Z,-3.12
2024-01-12T07:07:44.604Z,-3.18
2024-01-12T07:10:12.660Z,-3.20
2024-01-12T07:12:40.704Z,-3.15
2024-01-12T07:15:10.339Z,-3.12
2024-01-12T07:17:38.517Z,-3.05
2024-01-12T07:20:07.671Z,-3.00
2024-01-12T07:22:35.907Z,-3.02
2024-01-12T07:25:04.426Z,-3.05
2024-01-12T07:27:32.910Z,-3.07
2024-01-12T07:30:01.313Z,-3.10
2024-01-12T07:32:29.565Z,-3.14
2024-01-12T07:34:57.900Z,-3.13
2024-01-12T07:37:26.019Z,-3.17
2024-01-12T07:39:54.179Z,-3.17
2024-01-12T07:42:22.321Z,-3.20
2024-01-12T07:44:51.262Z,-3.23
2024-01-12T07:47:19.377Z,-3.27
2024-01-12T07:49:47.535Z,-3.29
2024-01-12T07:52:19.187Z,-3.28
2024-01-12T07:54:49.179Z,-3.27
2024-01-12T07:57:17.303Z,-3.30
2024-01-12T07:59:45.475Z,-3.29
2024-01-12T08:02:13.563Z,-3.29
2024-01-12T08:04:41.657Z,-3.28
2024-01-12T08:07:09.878Z,-3.27
2024-01-12T08:09:38.668Z,-3.29
2024-01-12T08:12:07.295Z,-3.30
2024-01-12T08:14:35.495Z,-3.31
2024-01-12T08:17:03.980Z,-3.30
2024-01-12T08:19:32.334Z,-3.28
2024-01-12T08:22:02.923Z,-3.27
2024-01-12T08:24:33.016Z,-3.28
2024-01-12T08:27:01.175Z,-3.30
2024-01-12T08:29:29.579Z,-3.28
2024-01-12T08:32:00.035Z,-3.26
2024-01-12T08:34:29.098Z,-3.24
2024-01-12T08:36:59.573Z,-3.24
2024-01-12T08:39:28.083Z,-3.22
2024-01-12T08:41:56.144Z,-3.20
2024-01-12T08:44:24.460Z,-3.20
2024-01-12T08:46:55.579Z,-3.23
2024-01-12T08:49:23.941Z,-3.21
2024-01-12T08:51:52.773Z,-3.17
2024-01-12T08:54:21.006Z,-3.13
2024-01-12T08:56:49.178Z,-3.10
2024-01-12T08:59:17.286Z,-3.03
2024-01-12T09:01:45.487Z,-2.98
2024-01-12T09:04:13.833Z,-3.01
2024-01-12T09:06:42.158Z,-2.99
2024-01-12T09:09:10.608Z,-2.98
2024-01-12T09:11:38.918Z,-2.98
2024-01-12T09:14:09.481Z,-2.99
2024-01-12T09:16:38.557Z,-3.00
2024-01-12T09:19:08.145Z,-3.00
2024-01-12T09:21:36.403Z,-3.02
2024-01-12T09:24:04.788Z,-3.01
2024-01-12T09:26:33.048Z,-2.97
2024-01-12T09:29:01.186Z,-2.90
2024-01-12T09:31:29.384Z,-2.90
2024-01-12T09:33:58.333Z,-2.90
2024-01-12T09:36:26.538Z,-2.90
2024-01-12T09:38:55.915Z,-2.92
2024-01-12T09:41:37.806Z,-2.98
2024-01-12T09:44:09.241Z,-3.00
2024-01-12T09:47:01.832Z,-3.02
2024-01-12T09:49:32.369Z,-3.08
2024-01-12T09:52:03.177Z,-3.10
2024-01-12T09:54:31.348Z,-3.06
2024-01-12T09:57:00.571Z,-3.03
2024-01-12T09:59:29.793Z,-2.99
2024-01-12T10:01:58.974Z,-2.97
2024-01-12T10:04:28.305Z,-2.93
2024-01-12T10:06:56.875Z,-2.91
2024-01-12T10:09:26.555Z,-2.90
2024-01-12T10:11:55.788Z,-2.92
2024-01-12T10:14:26.726Z,-2.96
2024-01-12T10:16:59.668Z,-2.98
2024-01-12T10:19:28.150Z,-3.01
2024-01-12T10:21:57.072Z,-2.98
2024-01-12T10:24:25.234Z,-2.96
2024-01-12T10:26:53.934Z,-2.94
2024-01-12T10:29:22.455Z,-2.92
2024-01-12T10:31:50.951Z,-2.91
2024-01-12T10:34:22.025Z,-2.89
2024-01-12T10:36:52.559Z,-2.87
2024-01-12T10:39:23.351Z,-2.86
2024-01-12T10:41:53.464Z,-2.85
2024-01-12T10:44:23.797Z,-2.85
2024-01-12T10:46:57.812Z,-2.86
2024-01-12T10:49:28.716Z,-2.84
2024-01-12T10:52:20.861Z,-2.83
2024-01-12T10:54:52.842Z,-2.82
2024-01-12T10:57:23.233Z,-2.78
2024-01-12T10:59:51.548Z,-2.76
2024-01-12T11:02:20.690Z,-2.76
2024-01-12T11:04:50.072Z,-2.71
2024-01-12T11:07:19.657Z,-2.66
2024-01-12T11:09:47.833Z,-2.66
2024-01-12T11:12:33.459Z,-2.60
2024-01-12T11:15:02.499Z,-2.58
2024-01-12T11:17:32.696Z,-2.59
2024-01-12T11:20:21.766Z,-2.60
2024-01-12T11:22:51.271Z,-2.60
2024-01-12T11:25:20.625Z,-2.61
2024-01-12T11:27:51.160Z,-2.62
2024-01-12T11:30:21.580Z,-2.58
2024-01-12T11:33:02.306Z,-2.53
2024-01-12T11:35:32.263Z,-2.45
2024-01-12T11:38:01.697Z,-2.41
2024-01-12T11:40:30.176Z,-2.37
2024-01-12T11:43:00.660Z,-2.38
2024-01-12T11:45:29.831Z,-2.37
2024-01-12T11:47:58.119Z,-2.34
2024-01-12T11:50:28.678Z,-2.34
2024-01-12T11:52:58.817Z,-2.34
2024-01-12T11:55:27.771Z,-2.36
2024-01-12T11:57:56.696Z,-2.36
2024-01-12T12:00:25.290Z,-2.35
2024-01-12T12:02:57.100Z,-2.35
2024-01-12T12:05:27.530Z,-2.31
2024-01-12T12:07:55.841Z,-2.27
2024-01-12T12:10:33.335Z,-2.24
2024-01-12T12:13:12.328Z,-2.19
2024-01-12T12:15:40.460Z,-2.18
2024-01-12T12:18:09.078Z,-2.17
2024-01-12T12:20:37.882Z,-2.07
2024-01-12T12:23:08.537Z,-1.93
2024-01-12T12:25:36.928Z,-1.56
2024-01-12T12:28:05.971Z,-1.07
2024-01-12T12:30:34.217Z,-0.83
2024-01-12T12:33:02.572Z,-0.73
2024-01-12T12:35:30.853Z,-0.60
2024-01-12T12:38:02.680Z,-0.49
2024-01-12T12:40:34.257Z,-0.43
2024-01-12T12:43:03.738Z,-0.48
2024-01-12T12:45:31.941Z,-0.64
2024-01-12T12:48:00.656Z,-0.77
2024-01-12T12:50:30.810Z,-0.78
2024-01-12T12:52:59.013Z,-0.70
2024-01-12T12:55:27.188Z,-0.55
2024-01-12T12:57:55.227Z,-0.47
2024-01-12T13:00:23.378Z,-0.53
2024-01-12T13:02:51.763Z,-0.60
2024-01-12T13:05:22.988Z,-0.68
2024-01-12T13:07:51.517Z,-0.84
2024-01-12T13:10:19.933Z,-0.91
2024-01-12T13:12:48.185Z,-1.00
2024-01-12T13:15:16.469Z,-1.08
2024-01-12T13:17:44.992Z,-1.13
2024-01-12T13:20:14.482Z,-1.20
2024-01-12T13:22:42.773Z,-1.22
2024-01-12T13:25:12.549Z,-1.26
2024-01-12T13:27:40.613Z,-1.32
2024-01-12T13:30:12.286Z,-1.35
2024-01-12T13:32:40.688Z,-1.36
2024-01-12T13:35:09.831Z,-1.37
2024-01-12T13:37:38.376Z,-1.39
2024-01-12T13:40:07.424Z,-1.42
2024-01-12T13:42:35.518Z,-1.51
2024-01-12T13:45:04.094Z,-1.54
2024-01-12T13:47:32.912Z,-1.55
2024-01-12T13:50:01.266Z,-1.58
2024-01-12T13:52:29.812Z,-1.62
2024-01-12T13:54:57.919Z,-1.62
2024-01-12T13:57:25.926Z,-1.70
2024-01-12T13:59:54.190Z,-1.78
2024-01-12T14:02:22.436Z,-1.86
2024-01-12T14:05:00.953Z,-1.90
2024-01-12T14:07:40.238Z,-1.95
2024-01-12T14:10:09.409Z,-1.96
2024-01-12T14:12:38.559Z,-1.93
2024-01-12T14:15:08.335Z,-1.93
2024-01-12T14:17:36.550Z,-1.97
2024-01-12T14:20:05.456Z,-2.01
2024-01-12T14:22:34.106Z,-2.01
2024-01-12T14:25:02.288Z,-2.04
2024-01-12T14:27:30.447Z,-2.10
2024-01-12T14:29:59.253Z,-2.13
2024-01-12T14:32:27.982Z,-2.18
2024-01-12T14:34:56.288Z,-2.23
2024-01-12T14:37:24.603Z,-2.25
2024-01-12T14:39:52.797Z,-2.26
2024-01-12T14:42:20.982Z,-2.25
2024-01-12T14:44:49.159Z,-2.25
2024-01-12T14:47:20.821Z,-2.27
2024-01-12T14:49:50.622Z,-2.29
2024-01-12T14:52:19.018Z,-2.28
2024-01-12T14:54:48.477Z,-2.31
2024-01-12T14:57:16.848Z,-2.32
2024-01-12T14:59:45.266Z,-2.32
2024-01-12T15:02:13.377Z,-2.33
2024-01-12T15:04:43.557Z,-2.33
2024-01-12T15:07:12.040Z,-2.37
2024-01-12T15:09:40.290Z,-2.42
2024-01-12T15:12:08.560Z,-2.43
2024-01-12T15:14:36.737Z,-2.46
2024-01-12T15:17:05.034Z,-2.49
2024-01-12T15:19:33.453Z,-2.51
2024-01-12T15:22:01.616Z,-2.55
2024-01-12T15:24:29.807Z,-2.58
2024-01-12T15:26:57.956Z,-2.57
2024-01-12T15:29:26.150Z,-2.60
2024-01-12T15:31:54.241Z,-2.63
2024-01-12T15:34:22.478Z,-2.63
2024-01-12T15:36:50.730Z,-2.65
2024-01-12T15:39:18.775Z,-2.65
2024-01-12T15:41:46.929Z,-2.67
2024-01-12T15:44:15.037Z,-2.69
2024-01-12T15:46:43.095Z,-2.71
2024-01-12T15:49:12.364Z,-2.71
2024-01-12T15:51:41.473Z,-2.71
2024-01-12T15:54:09.526Z,-2.72
2024-01-12T15:56:37.690Z,-2.71
2024-01-12T15:59:05.740Z,-2.71
2024-01-12T16:01:33.842Z,-2.69
2024-01-12T16:04:01.984Z,-2.70
2024-01-12T16:06:30.448Z,-2.70
2024-01-12T16:08:58.753Z,-2.70
2024-01-12T16:11:27.099Z,-2.72
2024-01-12T16:13:55.462Z,-2.74
2024-01-12T16:16:23.670Z,-2.76
2024-01-12T16:19:00.026Z,-2.80
2024-01-12T16:21:35.201Z,-2.82
2024-01-12T16:24:04.148Z,-2.84
2024-01-12T16:26:39.416Z,-2.87
2024-01-12T16:29:08.561Z,-2.91
2024-01-12T16:31:37.296Z,-2.94
2024-01-12T16:34:08.682Z,-2.97
2024-01-12T16:36:36.791Z,-3.02
2024-01-12T16:39:04.927Z,-3.05
2024-01-12T16:41:33.112Z,-3.10
2024-01-12T16:44:01.242Z,-3.12
2024-01-12T16:46:29.269Z,-3.16
2024-01-12T16:48:57.535Z,-3.19
2024-01-12T16:51:25.754Z,-3.22
2024-01-12T16:53:53.864Z,-3.24
2024-01-12T16:56:22.259Z,-3.26
2024-01-12T16:58:51.107Z,-3.28
2024-01-12T17:01:22.113Z,-3.30
2024-01-12T17:03:51.128Z,-3.30
2024-01-12T17:06:19.388Z,-3.31
2024-01-12T17:08:47.489Z,-3.31
2024-01-12T17:11:15.594Z,-3.30
2024-01-12T17:13:44.777Z,-3.32
2024-01-12T17:16:12.959Z,-3.33
2024-01-12T17:18:41.764Z,-3.33
2024-01-12T17:21:10.855Z,-3.33
2024-01-12T17:23:39.554Z,-3.31
2024-01-12T17:26:11.009Z,-3.31
2024-01-12T17:28:39.575Z,-3.28
2024-01-12T17:31:07.756Z,-3.23
2024-01-12T17:33:36.131Z,-3.20
2024-01-12T17:36:07.702Z,-3.15
2024-01-12T17:38:35.858Z,-3.13
2024-01-12T17:41:06.988Z,-3.10
2024-01-12T17:43:35.032Z,-3.09
2024-01-12T17:46:03.632Z,-3.07
2024-01-12T17:48:34.364Z,-3.06
2024-01-12T17:51:02.673Z,-3.08
2024-01-12T17:53:30.802Z,-3.10
2024-01-12T17:55:58.903Z,-3.13
2024-01-12T17:58:27.044Z,-3.15
2024-01-12T18:00:55.155Z,-3.17
2024-01-12T18:03:23.290Z,-3.22
2024-01-12T18:05:51.473Z,-3.27
2024-01-12T18:08:19.698Z,-3.31
2024-01-12T18:10:47.717Z,-3.34
2024-01-12T18:13:15.817Z,-3.38
2024-01-12T18:15:44.229Z,-3.42
2024-01-12T18:18:12.491Z,-3.44
2024-01-12T18:20:40.841Z,-3.48
2024-01-12T18:23:09.229Z,-3.51
2024-01-12T18:25:37.386Z,-3.53
2024-01-12T18:28:05.526Z,-3.56
2024-01-12T18:30:33.850Z,-3.58
2024-01-12T18:33:02.142Z,-3.61
2024-01-12T18:35:30.325Z,-3.63
2024-01-12T18:37:58.531Z,-3.65
2024-01-12T18:40:26.849Z,-3.67
2024-01-12T18:42:54.889Z,-3.69
2024-01-12T18:45:22.995Z,-3.70
2024-01-12T18:47:51.119Z,-3.71
2024-01-12T18:50:19.408Z,-3.73
2024-01-12T18:52:47.479Z,-3.73
2024-01-12T18:55:15.638Z,-3.75
2024-01-12T18:57:43.714Z,-3.76
2024-01-12T19:00:12.834Z,-3.77
2024-01-12T19:02:40.974Z,-3.80
2024-01-12T19:05:09.196Z,-3.83
2024-01-12T19:07:37.353Z,-3.85
2024-01-12T19:10:06.010Z,-3.89
2024-01-12T19:12:34.129Z,-3.92
2024-01-12T19:15:02.511Z,-3.95
2024-01-12T19:17:30.667Z,-4.01
2024-01-12T19:19:59.616Z,-4.03
2024-01-12T19:22:27.716Z,-4.06
2024-01-12T19:24:56.980Z,-4.12
2024-01-12T19:27:25.296Z,-4.14
2024-01-12T19:29:53.496Z,-4.18
2024-01-12T19:32:21.657Z,-4.21
2024-01-12T19:34:51.260Z,-4.24
2024-01-12T19:37:19.489Z,-4.27
2024-01-12T19:39:47.501Z,-4.31
2024-01-12T19:42:16.969Z,-4.34
2024-01-12T19:44:45.799Z,-4.37
2024-01-12T19:47:13.970Z,-4.40
2024-01-12T19:49:42.951Z,-4.43
2024-01-12T19:52:11.002Z,-4.46
2024-01-12T19:54:39.371Z,-4.49
2024-01-12T19:57:07.629Z,-4.52
2024-01-12T19:59:35.917Z,-4.55
2024-01-12T20:02:04.323Z,-4.59
2024-01-12T20:04:41.080Z,-4.62
2024-01-12T20:07:14.983Z,-4.65
2024-01-12T20:09:43.108Z,-4.68
2024-01-12T20:12:11.349Z,-4.71
2024-01-12T20:14:39.580Z,-4.74
2024-01-12T20:17:07.869Z,-4.77
2024-01-12T20:19:36.071Z,-4.80
2024-01-12T20:22:04.494Z,-4.81
2024-01-12T20:24:32.583Z,-4.80
2024-01-12T20:27:00.913Z,-4.79
2024-01-12T20:29:29.019Z,-4.78
2024-01-12T20:31:57.084Z,-4.78
2024-01-12T20:34:25.347Z,-4.76
2024-01-12T20:36:53.688Z,-4.74
2024-01-12T20:39:22.147Z,-4.72
2024-01-12T20:41:50.261Z,-4.71
2024-01-12T20:44:18.480Z,-4.69
2024-01-12T20:46:48.613Z,-4.69
2024-01-12T20:49:16.788Z,-4.70
2024-01-12T20:51:44.963Z,-4.71
2024-01-12T20:54:13.214Z,-4.74
2024-01-12T20:56:44.053Z,-4.75
2024-01-12T20:59:12.146Z,-4.78
2024-01-12T21:01:40.201Z,-4.80
2024-01-12T21:04:08.537Z,-4.82
2024-01-12T21:06:36.756Z,-4.85
2024-01-12T21:09:04.935Z,-4.86
2024-01-12T21:11:32.974Z,-4.89
2024-01-12T21:14:02.210Z,-4.90
2024-01-12T21:16:30.184Z,-4.92
2024-01-12T21:18:58.314Z,-4.94
2024-01-12T21:21:26.610Z,-4.94
2024-01-12T21:23:54.958Z,-4.94
2024-01-12T21:26:23.737Z,-4.94
2024-01-12T21:28:51.926Z,-4.94
2024-01-12T21:31:20.178Z,-4.93
2024-01-12T21:33:48.551Z,-4.93
2024-01-12T21:36:16.899Z,-4.90
2024-01-12T21:38:45.056Z,-4.90
2024-01-12T21:41:13.375Z,-4.89
2024-01-12T21:43:41.383Z,-4.89
2024-01-12T21:46:10.747Z,-4.88
2024-01-12T21:48:38.976Z,-4.89
2024-01-12T21:51:07.640Z,-4.88
2024-01-12T21:53:35.841Z,-4.88
2024-01-12T21:56:04.130Z,-4.84
2024-01-12T21:58:32.155Z,-4.84
2024-01-12T22:01:00.284Z,-4.84
2024-01-12T22:03:28.574Z,-4.82
2024-01-12T22:05:56.896Z,-4.81
2024-01-12T22:08:25.236Z,-4.80
2024-01-12T22:10:53.293Z,-4.78
2024-01-12T22:13:21.381Z,-4.75
2024-01-12T22:15:50.228Z,-4.73
2024-01-12T22:18:18.478Z,-4.71
2024-01-12T22:20:46.736Z,-4.68
2024-01-12T22:23:14.825Z,-4.65
2024-01-12T22:25:43.861Z,-4.62
2024-01-12T22:28:12.146Z,-4.60
2024-01-12T22:30:40.341Z,-4.58
2024-01-12T22:33:08.437Z,-4.56
2024-01-12T22:35:37.206Z,-4.55
2024-01-12T22:38:06.138Z,-4.54
2024-01-12T22:40:34.221Z,-4.54
2024-01-12T22:43:02.341Z,-4.53
2024-01-12T22:45:30.490Z,-4.53
2024-01-12T22:47:58.757Z,-4.51
2024-01-12T22:50:28.058Z,-4.49
2024-01-12T22:52:57.774Z,-4.48
2024-01-12T22:55:28.278Z,-4.45
2024-01-12T22:57:56.595Z,-4.44
2024-01-12T23:00:27.628Z,-4.41
2024-01-12T23:02:57.038Z,-4.39
2024-01-12T23:05:25.691Z,-4.37
2024-01-12T23:07:54.109Z,-4.33
2024-01-12T23:10:22.451Z,-4.30
2024-01-12T23:12:50.578Z,-4.28
2024-01-12T23:15:20.141Z,-4.26
2024-01-12T23:17:48.409Z,-4.25
2024-01-12T23:20:19.017Z,-4.23
2024-01-12T23:22:48.458Z,-4.22
2024-01-12T23:25:16.712Z,-4.20
2024-01-12T23:27:44.829Z,-4.18
2024-01-12T23:30:14.492Z,-4.16
2024-01-12T23:32:43.247Z,-4.13
2024-01-12T23:35:12.059Z,-4.12
2024-01-12T23:37:40.364Z,-4.09
2024-01-12T23:40:11.046Z,-4.07
2024-01-12T23:42:39.275Z,-4.05
2024-01-12T23:45:08.116Z,-4.03
2024-01-12T23:47:36.489Z,-4.02
2024-01-12T23:50:05.188Z,-4.02
2024-01-12T23:52:33.472Z,-4.00
2024-01-12T23:55:01.585Z,-4.00
2024-01-12T23:57:29.884Z,-4.00
2024-01-12T23:59:58.073Z,-3.98
